createdAt,value
2017-07-19T00:00:16.379Z,0
2017-07-19T00:00:37.031Z,0
2017-07-19T00:00:57.675Z,0
2017-07-19T00:01:18.319Z,0
2017-07-19T00:01:38.985Z,0
2017-07-19T00:01:59.667Z,0
2017-07-19T00:02:20.340Z,0
2017-07-19T00:02:41.004Z,0
2017-07-19T00:03:01.672Z,0
2017-07-19T00:03:22.330Z,0
2017-07-19T00:03:42.998Z,0
2017-07-19T00:04:03.641Z,0
2017-07-19T00:04:24.320Z,0
2017-07-19T00:04:44.960Z,0
2017-07-19T00:05:05.607Z,0
2017-07-19T00:05:26.251Z,0
2017-07-19T00:05:46.893Z,0
2017-07-19T00:06:07.552Z,0
2017-07-19T00:06:28.189Z,0
2017-07-19T00:06:48.850Z,0
2017-07-19T00:07:09.507Z,0
2017-07-19T00:07:30.152Z,0
2017-07-19T00:07:50.795Z,0
2017-07-19T00:08:11.446Z,0
2017-07-19T00:08:32.091Z,0
2017-07-19T00:08:52.751Z,0
2017-07-19T00:09:13.411Z,0
2017-07-19T00:09:34.064Z,0
2017-07-19T00:09:54.715Z,0
2017-07-19T00:10:15.370Z,0
2017-07-19T00:10:36.073Z,0
2017-07-19T00:10:56.723Z,0
2017-07-19T00:11:17.375Z,0
2017-07-19T00:11:38.029Z,0
2017-07-19T00:11:58.673Z,0
2017-07-19T00:12:19.308Z,0
2017-07-19T00:12:39.940Z,0
2017-07-19T00:13:00.595Z,0
2017-07-19T00:13:21.250Z,0
2017-07-19T00:13:41.906Z,0
2017-07-19T00:14:02.558Z,0
2017-07-19T00:14:23.198Z,0
2017-07-19T00:14:43.843Z,0
2017-07-19T00:15:04.482Z,0
2017-07-19T00:15:25.117Z,0
2017-07-19T00:15:45.785Z,0
2017-07-19T00:16:06.429Z,0
2017-07-19T00:16:27.078Z,0
2017-07-19T00:16:47.718Z,0
2017-07-19T00:17:08.410Z,0
2017-07-19T00:17:29.078Z,0
2017-07-19T00:17:49.744Z,0
2017-07-19T00:18:10.389Z,0
2017-07-19T00:18:31.057Z,0
2017-07-19T00:18:51.706Z,0
2017-07-19T00:19:12.342Z,0
2017-07-19T00:19:33.007Z,0
2017-07-19T00:19:53.648Z,0
2017-07-19T00:20:14.293Z,0
2017-07-19T00:20:34.947Z,0
2017-07-19T00:20:55.590Z,0
2017-07-19T00:21:16.245Z,0
2017-07-19T00:21:36.904Z,0
2017-07-19T00:21:57.547Z,0
2017-07-19T00:22:18.196Z,0
2017-07-19T00:22:38.836Z,0
2017-07-19T00:22:59.493Z,0
2017-07-19T00:23:20.146Z,0
2017-07-19T00:23:40.785Z,0
2017-07-19T00:24:01.421Z,0
2017-07-19T00:24:22.082Z,0
2017-07-19T00:24:42.753Z,0
2017-07-19T00:25:03.422Z,0
2017-07-19T00:25:24.072Z,0
2017-07-19T00:25:44.712Z,0
2017-07-19T00:26:05.351Z,0
2017-07-19T00:26:25.992Z,0
2017-07-19T00:26:46.649Z,0
2017-07-19T00:27:07.325Z,0
2017-07-19T00:27:27.983Z,0
2017-07-19T00:27:48.690Z,0
2017-07-19T00:28:09.346Z,0
2017-07-19T00:28:29.982Z,0
2017-07-19T00:28:50.628Z,0
2017-07-19T00:29:11.304Z,0
2017-07-19T00:29:31.949Z,0
2017-07-19T00:29:52.594Z,0
2017-07-19T00:30:13.236Z,0
2017-07-19T00:30:33.890Z,0
2017-07-19T00:30:54.539Z,0
2017-07-19T00:31:15.200Z,0
2017-07-19T00:31:35.855Z,0
2017-07-19T00:31:56.515Z,0
2017-07-19T00:32:17.173Z,0
2017-07-19T00:32:37.836Z,0
2017-07-19T00:32:58.472Z,0
2017-07-19T00:33:19.124Z,0
2017-07-19T00:33:39.770Z,0
2017-07-19T00:34:00.404Z,0
2017-07-19T00:34:21.040Z,0
2017-07-19T00:34:41.685Z,0
2017-07-19T00:35:02.337Z,0
2017-07-19T00:35:22.992Z,0
2017-07-19T00:35:43.655Z,0
2017-07-19T00:36:04.293Z,0
2017-07-19T00:36:24.958Z,0
2017-07-19T00:36:45.598Z,0
2017-07-19T00:37:06.238Z,0
2017-07-19T00:37:26.897Z,0
2017-07-19T00:37:47.555Z,0
2017-07-19T00:38:08.193Z,0
2017-07-19T00:38:28.833Z,0
2017-07-19T00:38:49.502Z,0
2017-07-19T00:39:10.150Z,0
2017-07-19T00:39:30.834Z,0
2017-07-19T00:39:51.497Z,0
2017-07-19T00:40:12.161Z,0
2017-07-19T00:40:32.798Z,0
2017-07-19T00:40:53.436Z,0
2017-07-19T00:41:14.097Z,0
2017-07-19T00:41:34.748Z,0
2017-07-19T00:41:55.385Z,0
2017-07-19T00:42:16.028Z,0
2017-07-19T00:42:36.666Z,0
2017-07-19T00:42:57.316Z,0
2017-07-19T00:43:17.960Z,0
2017-07-19T00:43:38.617Z,0
2017-07-19T00:43:59.263Z,0
2017-07-19T00:44:19.914Z,0
2017-07-19T00:44:40.552Z,0
2017-07-19T00:45:01.215Z,0
2017-07-19T00:45:21.875Z,0
2017-07-19T00:45:42.512Z,0
2017-07-19T00:46:03.153Z,0
2017-07-19T00:46:23.796Z,0
2017-07-19T00:46:44.438Z,0
2017-07-19T00:47:05.095Z,0
2017-07-19T00:47:25.735Z,0
2017-07-19T00:47:46.386Z,0
2017-07-19T00:48:07.037Z,0
2017-07-19T00:48:27.700Z,0
2017-07-19T00:48:48.327Z,0
2017-07-19T00:49:08.972Z,0
2017-07-19T00:49:29.630Z,0
2017-07-19T00:49:50.256Z,0
2017-07-19T00:50:10.913Z,0
2017-07-19T00:50:31.551Z,0
2017-07-19T00:50:52.198Z,0
2017-07-19T00:51:12.901Z,0
2017-07-19T00:51:33.566Z,0
2017-07-19T00:51:54.239Z,0
2017-07-19T00:52:14.878Z,0
2017-07-19T00:52:35.534Z,0
2017-07-19T00:52:56.187Z,0
2017-07-19T00:53:16.825Z,0
2017-07-19T00:53:37.455Z,0
2017-07-19T00:53:58.107Z,0
2017-07-19T00:54:18.744Z,0
2017-07-19T00:54:39.403Z,0
2017-07-19T00:55:00.061Z,0
2017-07-19T00:55:20.707Z,0
2017-07-19T00:55:41.340Z,0
2017-07-19T00:56:01.991Z,0
2017-07-19T00:56:22.638Z,0
2017-07-19T00:56:43.277Z,0
2017-07-19T00:57:03.936Z,0
2017-07-19T00:57:24.585Z,0
2017-07-19T00:57:45.225Z,0
2017-07-19T00:58:05.868Z,0
2017-07-19T00:58:28.341Z,0
2017-07-19T00:58:49.002Z,0
2017-07-19T00:59:09.678Z,0
2017-07-19T00:59:30.315Z,0
2017-07-19T00:59:50.975Z,0
2017-07-19T01:00:11.655Z,0
2017-07-19T01:00:32.303Z,0
2017-07-19T01:00:52.965Z,0
2017-07-19T01:01:13.620Z,0
2017-07-19T01:01:34.265Z,0
2017-07-19T01:01:54.914Z,0
2017-07-19T01:02:15.581Z,0
2017-07-19T01:02:36.233Z,0
2017-07-19T01:02:56.886Z,0
2017-07-19T01:03:17.543Z,0
2017-07-19T01:03:38.187Z,0
2017-07-19T01:03:58.851Z,0
2017-07-19T01:04:19.493Z,0
2017-07-19T01:04:40.122Z,0
2017-07-19T01:05:00.770Z,0
2017-07-19T01:05:21.417Z,0
2017-07-19T01:05:42.084Z,0
2017-07-19T01:06:02.762Z,0
2017-07-19T01:06:23.400Z,0
2017-07-19T01:06:44.043Z,0
2017-07-19T01:07:04.700Z,0
2017-07-19T01:07:25.361Z,0
2017-07-19T01:07:46.003Z,0
2017-07-19T01:08:06.669Z,0
2017-07-19T01:08:27.321Z,0
2017-07-19T01:08:47.964Z,0
2017-07-19T01:09:08.611Z,0
2017-07-19T01:09:29.273Z,0
2017-07-19T01:09:49.915Z,0
2017-07-19T01:10:10.576Z,0
2017-07-19T01:10:31.240Z,0
2017-07-19T01:10:51.889Z,0
2017-07-19T01:11:12.541Z,0
2017-07-19T01:11:33.207Z,0
2017-07-19T01:11:53.859Z,0
2017-07-19T01:12:14.517Z,0
2017-07-19T01:12:35.160Z,0
2017-07-19T01:12:55.806Z,0
2017-07-19T01:13:16.466Z,0
2017-07-19T01:13:37.102Z,0
2017-07-19T01:13:57.739Z,0
2017-07-19T01:14:18.387Z,0
2017-07-19T01:14:39.034Z,0
2017-07-19T01:14:59.666Z,0
2017-07-19T01:15:20.329Z,0
2017-07-19T01:15:40.981Z,0
2017-07-19T01:16:01.630Z,0
2017-07-19T01:16:22.282Z,0
2017-07-19T01:16:42.925Z,0
2017-07-19T01:17:03.562Z,0
2017-07-19T01:17:24.213Z,0
2017-07-19T01:17:44.851Z,0
2017-07-19T01:18:05.497Z,0
2017-07-19T01:18:26.148Z,0
2017-07-19T01:18:46.793Z,0
2017-07-19T01:19:07.439Z,0
2017-07-19T01:19:28.080Z,0
2017-07-19T01:19:48.723Z,0
2017-07-19T01:20:09.378Z,0
2017-07-19T01:20:30.021Z,0
2017-07-19T01:20:50.668Z,0
2017-07-19T01:21:11.329Z,0
2017-07-19T01:21:31.974Z,0
2017-07-19T01:21:52.616Z,0
2017-07-19T01:22:13.248Z,0
2017-07-19T01:22:33.914Z,0
2017-07-19T01:22:54.620Z,0
2017-07-19T01:23:15.282Z,0
2017-07-19T01:23:35.932Z,0
2017-07-19T01:23:56.578Z,0
2017-07-19T01:24:17.252Z,0
2017-07-19T01:24:37.917Z,0
2017-07-19T01:24:58.579Z,0
2017-07-19T01:25:19.214Z,0
2017-07-19T01:25:39.898Z,0
2017-07-19T01:26:00.538Z,0
2017-07-19T01:26:21.176Z,0
2017-07-19T01:26:41.857Z,0
2017-07-19T01:27:02.513Z,0
2017-07-19T01:27:23.155Z,0
2017-07-19T01:27:43.805Z,0
2017-07-19T01:28:04.469Z,0
2017-07-19T01:28:25.108Z,0
2017-07-19T01:28:45.759Z,0
2017-07-19T01:29:06.413Z,0
2017-07-19T01:29:27.060Z,0
2017-07-19T01:29:47.738Z,0
2017-07-19T01:30:08.429Z,0
2017-07-19T01:30:29.117Z,0
2017-07-19T01:30:49.761Z,0
2017-07-19T01:31:10.404Z,0
2017-07-19T01:31:31.050Z,0
2017-07-19T01:31:51.710Z,0
2017-07-19T01:32:12.362Z,0
2017-07-19T01:32:33.039Z,0
2017-07-19T01:32:53.689Z,0
2017-07-19T01:33:14.325Z,0
2017-07-19T01:33:34.987Z,0
2017-07-19T01:33:55.637Z,0
2017-07-19T01:34:16.291Z,0
2017-07-19T01:34:36.963Z,0
2017-07-19T01:34:57.628Z,0
2017-07-19T01:35:18.264Z,0
2017-07-19T01:35:38.940Z,0
2017-07-19T01:35:59.574Z,0
2017-07-19T01:36:20.220Z,0
2017-07-19T01:36:40.854Z,0
2017-07-19T01:37:01.518Z,0
2017-07-19T01:37:22.159Z,0
2017-07-19T01:37:42.826Z,0
2017-07-19T01:38:03.467Z,0
2017-07-19T01:38:24.140Z,0
2017-07-19T01:38:44.785Z,0
2017-07-19T01:39:05.424Z,0
2017-07-19T01:39:26.079Z,0
2017-07-19T01:39:46.710Z,0
2017-07-19T01:40:07.355Z,0
2017-07-19T01:40:28.018Z,0
2017-07-19T01:40:48.668Z,0
2017-07-19T01:41:09.298Z,0
2017-07-19T01:41:29.938Z,0
2017-07-19T01:41:50.578Z,0
2017-07-19T01:42:11.224Z,0
2017-07-19T01:42:31.876Z,0
2017-07-19T01:42:52.527Z,0
2017-07-19T01:43:13.191Z,0
2017-07-19T01:43:33.847Z,0
2017-07-19T01:43:54.489Z,0
2017-07-19T01:44:15.156Z,0
2017-07-19T01:44:35.805Z,0
2017-07-19T01:44:56.449Z,0
2017-07-19T01:45:17.111Z,0
2017-07-19T01:45:38.524Z,0
2017-07-19T01:45:59.177Z,0
2017-07-19T01:46:19.816Z,0
2017-07-19T01:46:40.471Z,0
2017-07-19T01:47:01.111Z,0
2017-07-19T01:47:21.751Z,0
2017-07-19T01:47:42.400Z,0
2017-07-19T01:48:03.057Z,0
2017-07-19T01:48:23.747Z,0
2017-07-19T01:48:44.382Z,0
2017-07-19T01:49:05.072Z,0
2017-07-19T01:49:25.731Z,0
2017-07-19T01:49:46.398Z,0
2017-07-19T01:50:07.047Z,0
2017-07-19T01:50:27.698Z,0
2017-07-19T01:50:48.367Z,0
2017-07-19T01:51:09.012Z,0
2017-07-19T01:51:29.662Z,0
2017-07-19T01:51:50.319Z,0
2017-07-19T01:52:10.965Z,0
2017-07-19T01:52:31.616Z,0
2017-07-19T01:52:52.306Z,0
2017-07-19T01:53:12.953Z,0
2017-07-19T01:53:33.628Z,0
2017-07-19T01:53:54.297Z,0
2017-07-19T01:54:14.959Z,0
2017-07-19T01:54:35.614Z,0
2017-07-19T01:54:56.276Z,0
2017-07-19T01:55:16.916Z,0
2017-07-19T01:55:37.552Z,0
2017-07-19T01:55:58.217Z,0
2017-07-19T01:56:18.886Z,0
2017-07-19T01:56:39.534Z,0
2017-07-19T01:57:00.526Z,0
2017-07-19T01:57:21.170Z,0
2017-07-19T01:57:41.822Z,0
2017-07-19T01:58:02.469Z,0
2017-07-19T01:58:23.145Z,0
2017-07-19T01:58:43.792Z,0
2017-07-19T01:59:04.438Z,0
2017-07-19T01:59:25.115Z,0
2017-07-19T01:59:45.764Z,0
2017-07-19T02:00:06.414Z,0
2017-07-19T02:00:27.055Z,0
2017-07-19T02:00:47.713Z,0
2017-07-19T02:01:08.377Z,0
2017-07-19T02:01:29.060Z,0
2017-07-19T02:01:49.708Z,0
2017-07-19T02:02:10.385Z,0
2017-07-19T02:02:31.040Z,0
2017-07-19T02:02:51.684Z,0
2017-07-19T02:03:12.430Z,0
2017-07-19T02:03:33.094Z,0
2017-07-19T02:03:53.735Z,0
2017-07-19T02:04:14.417Z,0
2017-07-19T02:04:35.070Z,0
2017-07-19T02:04:55.714Z,0
2017-07-19T02:05:16.353Z,0
2017-07-19T02:05:37.034Z,0
2017-07-19T02:05:57.697Z,0
2017-07-19T02:06:18.351Z,0
2017-07-19T02:06:39.024Z,0
2017-07-19T02:06:59.674Z,0
2017-07-19T02:07:20.327Z,0
2017-07-19T02:07:40.977Z,0
2017-07-19T02:08:01.638Z,0
2017-07-19T02:08:22.306Z,0
2017-07-19T02:08:42.948Z,0
2017-07-19T02:09:03.598Z,0
2017-07-19T02:09:24.240Z,0
2017-07-19T02:09:44.885Z,0
2017-07-19T02:10:05.542Z,0
2017-07-19T02:10:26.213Z,0
2017-07-19T02:10:46.869Z,0
2017-07-19T02:11:07.521Z,0
2017-07-19T02:11:28.166Z,0
2017-07-19T02:11:48.810Z,0
2017-07-19T02:12:09.461Z,0
2017-07-19T02:12:30.112Z,0
2017-07-19T02:12:50.767Z,0
2017-07-19T02:13:11.419Z,0
2017-07-19T02:13:32.068Z,0
2017-07-19T02:13:52.717Z,0
2017-07-19T02:14:13.379Z,0
2017-07-19T02:14:34.026Z,0
2017-07-19T02:14:54.683Z,0
2017-07-19T02:15:15.336Z,0
2017-07-19T02:15:35.974Z,0
2017-07-19T02:15:56.633Z,0
2017-07-19T02:16:17.280Z,0
2017-07-19T02:16:37.930Z,0
2017-07-19T02:16:58.593Z,0
2017-07-19T02:17:19.252Z,0
2017-07-19T02:17:39.900Z,0
2017-07-19T02:18:00.538Z,0
2017-07-19T02:18:21.188Z,0
2017-07-19T02:18:43.028Z,0
2017-07-19T02:19:03.679Z,0
2017-07-19T02:19:25.085Z,0
2017-07-19T02:19:45.751Z,0
2017-07-19T02:20:07.205Z,0
2017-07-19T02:20:27.844Z,0
2017-07-19T02:20:48.507Z,0
2017-07-19T02:21:09.179Z,0
2017-07-19T02:21:29.848Z,0
2017-07-19T02:21:50.506Z,0
2017-07-19T02:22:11.155Z,0
2017-07-19T02:22:31.817Z,0
2017-07-19T02:22:52.481Z,0
2017-07-19T02:23:13.123Z,0
2017-07-19T02:23:33.769Z,0
2017-07-19T02:23:54.440Z,0
2017-07-19T02:24:15.113Z,0
2017-07-19T02:24:35.763Z,0
2017-07-19T02:24:56.402Z,0
2017-07-19T02:25:17.069Z,0
2017-07-19T02:25:37.732Z,0
2017-07-19T02:25:58.388Z,0
2017-07-19T02:26:19.033Z,0
2017-07-19T02:26:39.680Z,0
2017-07-19T02:27:00.310Z,0
2017-07-19T02:27:20.977Z,0
2017-07-19T02:27:41.639Z,0
2017-07-19T02:28:02.428Z,0
2017-07-19T02:28:23.150Z,0
2017-07-19T02:28:43.811Z,0
2017-07-19T02:29:04.448Z,0
2017-07-19T02:29:25.107Z,0
2017-07-19T02:29:45.746Z,0
2017-07-19T02:30:06.392Z,0
2017-07-19T02:30:27.051Z,0
2017-07-19T02:30:47.744Z,0
2017-07-19T02:31:08.406Z,0
2017-07-19T02:31:29.057Z,4
2017-07-19T02:31:49.714Z,4
2017-07-19T02:32:10.351Z,4
2017-07-19T02:32:30.995Z,4
2017-07-19T02:32:51.652Z,4
2017-07-19T02:33:12.325Z,4
2017-07-19T02:33:32.965Z,4
2017-07-19T02:33:53.626Z,4
2017-07-19T02:34:14.273Z,0
2017-07-19T02:34:34.926Z,0
2017-07-19T02:34:55.594Z,0
2017-07-19T02:35:16.260Z,0
2017-07-19T02:35:36.917Z,0
2017-07-19T02:35:57.577Z,4
2017-07-19T02:36:18.228Z,4
2017-07-19T02:36:38.896Z,4
2017-07-19T02:36:59.546Z,4
2017-07-19T02:37:20.201Z,4
2017-07-19T02:37:40.865Z,4
2017-07-19T02:38:01.520Z,4
2017-07-19T02:38:22.165Z,0
2017-07-19T02:38:42.803Z,4
2017-07-19T02:39:03.442Z,4
2017-07-19T02:39:24.117Z,4
2017-07-19T02:39:44.769Z,4
2017-07-19T02:40:05.430Z,4
2017-07-19T02:40:26.145Z,8
2017-07-19T02:40:46.806Z,4
2017-07-19T02:41:07.482Z,4
2017-07-19T02:41:28.124Z,4
2017-07-19T02:41:48.787Z,8
2017-07-19T02:42:09.435Z,8
2017-07-19T02:42:30.085Z,4
2017-07-19T02:42:50.743Z,4
2017-07-19T02:43:11.407Z,8
2017-07-19T02:43:32.051Z,8
2017-07-19T02:43:52.700Z,4
2017-07-19T02:44:13.339Z,8
2017-07-19T02:44:33.977Z,8
2017-07-19T02:44:54.654Z,12
2017-07-19T02:45:15.317Z,8
2017-07-19T02:45:35.983Z,8
2017-07-19T02:45:56.641Z,12
2017-07-19T02:46:17.287Z,8
2017-07-19T02:46:37.941Z,12
2017-07-19T02:46:58.651Z,12
2017-07-19T02:47:19.289Z,12
2017-07-19T02:47:39.941Z,12
2017-07-19T02:48:00.590Z,12
2017-07-19T02:48:21.255Z,12
2017-07-19T02:48:41.926Z,16
2017-07-19T02:49:02.593Z,16
2017-07-19T02:49:23.253Z,16
2017-07-19T02:49:43.905Z,16
2017-07-19T02:50:04.561Z,16
2017-07-19T02:50:25.211Z,20
2017-07-19T02:50:45.864Z,16
2017-07-19T02:51:06.528Z,20
2017-07-19T02:51:27.199Z,20
2017-07-19T02:51:47.882Z,20
2017-07-19T02:52:08.526Z,24
2017-07-19T02:52:29.171Z,24
2017-07-19T02:52:49.823Z,24
2017-07-19T02:53:10.460Z,28
2017-07-19T02:53:31.102Z,28
2017-07-19T02:53:51.749Z,24
2017-07-19T02:54:12.465Z,28
2017-07-19T02:54:33.118Z,28
2017-07-19T02:54:53.783Z,32
2017-07-19T02:55:14.476Z,32
2017-07-19T02:55:35.145Z,32
2017-07-19T02:55:55.787Z,36
2017-07-19T02:56:16.443Z,36
2017-07-19T02:56:37.096Z,40
2017-07-19T02:56:57.733Z,40
2017-07-19T02:57:18.377Z,44
2017-07-19T02:57:39.019Z,44
2017-07-19T02:57:59.667Z,44
2017-07-19T02:58:20.316Z,44
2017-07-19T02:58:40.962Z,48
2017-07-19T02:59:01.633Z,52
2017-07-19T02:59:22.277Z,52
2017-07-19T02:59:42.929Z,56
2017-07-19T03:00:03.573Z,60
2017-07-19T03:00:24.222Z,64
2017-07-19T03:00:44.893Z,64
2017-07-19T03:01:05.570Z,64
2017-07-19T03:01:26.215Z,68
2017-07-19T03:01:46.890Z,72
2017-07-19T03:02:07.555Z,72
2017-07-19T03:02:28.205Z,80
2017-07-19T03:02:48.862Z,84
2017-07-19T03:03:09.500Z,84
2017-07-19T03:03:29.824Z,88
2017-07-19T03:03:50.498Z,92
2017-07-19T03:04:11.165Z,96
2017-07-19T03:04:31.815Z,96
2017-07-19T03:04:52.470Z,104
2017-07-19T03:05:13.110Z,104
2017-07-19T03:05:33.779Z,108
2017-07-19T03:05:54.421Z,116
2017-07-19T03:06:15.051Z,120
2017-07-19T03:06:35.734Z,120
2017-07-19T03:06:56.411Z,124
2017-07-19T03:07:17.088Z,128
2017-07-19T03:07:37.736Z,132
2017-07-19T03:07:58.382Z,140
2017-07-19T03:08:19.027Z,144
2017-07-19T03:08:39.692Z,148
2017-07-19T03:09:00.341Z,156
2017-07-19T03:09:20.996Z,156
2017-07-19T03:09:41.658Z,164
2017-07-19T03:10:02.319Z,172
2017-07-19T03:10:22.975Z,172
2017-07-19T03:10:43.605Z,180
2017-07-19T03:11:04.259Z,184
2017-07-19T03:11:24.906Z,188
2017-07-19T03:11:45.565Z,192
2017-07-19T03:12:06.206Z,200
2017-07-19T03:12:26.877Z,204
2017-07-19T03:12:47.524Z,212
2017-07-19T03:13:08.159Z,212
2017-07-19T03:13:28.840Z,220
2017-07-19T03:13:49.490Z,228
2017-07-19T03:14:10.130Z,232
2017-07-19T03:14:30.772Z,236
2017-07-19T03:14:51.437Z,244
2017-07-19T03:15:12.086Z,252
2017-07-19T03:15:32.753Z,256
2017-07-19T03:15:53.406Z,264
2017-07-19T03:16:14.067Z,268
2017-07-19T03:16:34.717Z,276
2017-07-19T03:16:55.371Z,284
2017-07-19T03:17:16.050Z,292
2017-07-19T03:17:36.715Z,296
2017-07-19T03:17:57.365Z,300
2017-07-19T03:18:18.016Z,308
2017-07-19T03:18:38.665Z,316
2017-07-19T03:18:59.303Z,324
2017-07-19T03:19:19.948Z,328
2017-07-19T03:19:40.589Z,336
2017-07-19T03:20:01.244Z,344
2017-07-19T03:20:21.888Z,348
2017-07-19T03:20:42.529Z,356
2017-07-19T03:21:03.199Z,364
2017-07-19T03:21:23.848Z,372
2017-07-19T03:21:44.500Z,380
2017-07-19T03:22:05.145Z,384
2017-07-19T03:22:25.809Z,396
2017-07-19T03:22:46.458Z,400
2017-07-19T03:23:07.098Z,408
2017-07-19T03:23:27.757Z,412
2017-07-19T03:23:48.416Z,424
2017-07-19T03:24:09.054Z,432
2017-07-19T03:24:29.714Z,436
2017-07-19T03:24:50.360Z,444
2017-07-19T03:25:11.008Z,452
2017-07-19T03:25:31.664Z,460
2017-07-19T03:25:52.312Z,468
2017-07-19T03:26:12.974Z,476
2017-07-19T03:26:33.626Z,484
2017-07-19T03:26:54.271Z,496
2017-07-19T03:27:14.925Z,500
2017-07-19T03:27:35.606Z,508
2017-07-19T03:27:56.267Z,520
2017-07-19T03:28:16.911Z,524
2017-07-19T03:28:37.566Z,532
2017-07-19T03:28:58.248Z,544
2017-07-19T03:29:18.905Z,548
2017-07-19T03:29:39.550Z,556
2017-07-19T03:30:00.233Z,564
2017-07-19T03:30:20.916Z,576
2017-07-19T03:30:41.564Z,580
2017-07-19T03:31:02.215Z,592
2017-07-19T03:31:22.854Z,596
2017-07-19T03:31:43.496Z,608
2017-07-19T03:32:04.129Z,616
2017-07-19T03:32:24.815Z,624
2017-07-19T03:32:45.454Z,632
2017-07-19T03:33:06.096Z,640
2017-07-19T03:33:26.732Z,648
2017-07-19T03:33:47.404Z,660
2017-07-19T03:34:08.059Z,664
2017-07-19T03:34:28.719Z,676
2017-07-19T03:34:49.357Z,684
2017-07-19T03:35:10.025Z,692
2017-07-19T03:35:30.673Z,700
2017-07-19T03:35:51.326Z,712
2017-07-19T03:36:11.981Z,716
2017-07-19T03:36:32.672Z,724
2017-07-19T03:36:53.331Z,736
2017-07-19T03:37:14.029Z,744
2017-07-19T03:37:34.685Z,756
2017-07-19T03:37:55.353Z,764
2017-07-19T03:38:16.022Z,772
2017-07-19T03:38:36.671Z,784
2017-07-19T03:38:57.328Z,792
2017-07-19T03:39:17.985Z,804
2017-07-19T03:39:38.650Z,808
2017-07-19T03:39:59.330Z,824
2017-07-19T03:40:19.986Z,832
2017-07-19T03:40:40.667Z,844
2017-07-19T03:41:01.326Z,848
2017-07-19T03:41:21.977Z,860
2017-07-19T03:41:42.630Z,872
2017-07-19T03:42:03.280Z,884
2017-07-19T03:42:23.949Z,888
2017-07-19T03:42:44.608Z,900
2017-07-19T03:43:05.315Z,912
2017-07-19T03:43:25.950Z,916
2017-07-19T03:43:46.605Z,928
2017-07-19T03:44:07.247Z,936
2017-07-19T03:44:27.889Z,952
2017-07-19T03:44:48.676Z,960
2017-07-19T03:45:09.328Z,968
2017-07-19T03:45:29.968Z,976
2017-07-19T03:45:50.630Z,988
2017-07-19T03:46:11.287Z,996
2017-07-19T03:46:31.937Z,1004
2017-07-19T03:46:52.575Z,1016
2017-07-19T03:47:13.233Z,1024
2017-07-19T03:47:33.882Z,1032
2017-07-19T03:47:54.522Z,1036
2017-07-19T03:48:15.207Z,1048
2017-07-19T03:48:35.870Z,1052
2017-07-19T03:48:56.533Z,1064
2017-07-19T03:49:17.192Z,1072
2017-07-19T03:49:37.868Z,1080
2017-07-19T03:49:58.523Z,1088
2017-07-19T03:50:19.190Z,1092
2017-07-19T03:50:39.859Z,1100
2017-07-19T03:51:00.545Z,1108
2017-07-19T03:51:21.195Z,1116
2017-07-19T03:51:41.854Z,1124
2017-07-19T03:52:02.519Z,1132
2017-07-19T03:52:23.184Z,1140
2017-07-19T03:52:43.846Z,1148
2017-07-19T03:53:04.504Z,1156
2017-07-19T03:53:25.159Z,1168
2017-07-19T03:53:45.814Z,1176
2017-07-19T03:54:06.473Z,1180
2017-07-19T03:54:27.141Z,1192
2017-07-19T03:54:47.794Z,1196
2017-07-19T03:55:08.455Z,1204
2017-07-19T03:55:29.092Z,1216
2017-07-19T03:55:49.752Z,1224
2017-07-19T03:56:10.396Z,1232
2017-07-19T03:56:31.051Z,1240
2017-07-19T03:56:51.717Z,1248
2017-07-19T03:57:12.386Z,1256
2017-07-19T03:57:33.043Z,1268
2017-07-19T03:57:53.705Z,1272
2017-07-19T03:58:14.366Z,1284
2017-07-19T03:58:35.017Z,1292
2017-07-19T03:58:55.671Z,1300
2017-07-19T03:59:16.316Z,1312
2017-07-19T03:59:36.955Z,1320
2017-07-19T03:59:57.593Z,1328
2017-07-19T04:00:18.245Z,1340
2017-07-19T04:00:38.889Z,1348
2017-07-19T04:00:59.549Z,1360
2017-07-19T04:01:20.210Z,1364
2017-07-19T04:01:40.853Z,1376
2017-07-19T04:02:01.510Z,1384
2017-07-19T04:02:22.163Z,1396
2017-07-19T04:02:42.863Z,1404
2017-07-19T04:03:03.514Z,1412
2017-07-19T04:03:24.170Z,1420
2017-07-19T04:03:44.823Z,1428
2017-07-19T04:04:05.492Z,1440
2017-07-19T04:04:26.143Z,1448
2017-07-19T04:04:46.817Z,1456
2017-07-19T04:05:07.475Z,1468
2017-07-19T04:05:28.149Z,1476
2017-07-19T04:05:48.805Z,1484
2017-07-19T04:06:09.455Z,1496
2017-07-19T04:06:30.115Z,1504
2017-07-19T04:06:50.764Z,1512
2017-07-19T04:07:11.435Z,1520
2017-07-19T04:07:32.075Z,1528
2017-07-19T04:07:52.732Z,1540
2017-07-19T04:08:13.378Z,1548
2017-07-19T04:08:34.037Z,1556
2017-07-19T04:08:54.693Z,1564
2017-07-19T04:09:15.336Z,1576
2017-07-19T04:09:35.990Z,1580
2017-07-19T04:09:56.654Z,1592
2017-07-19T04:10:17.328Z,1600
2017-07-19T04:10:37.996Z,1608
2017-07-19T04:10:58.641Z,1616
2017-07-19T04:11:19.335Z,1628
2017-07-19T04:11:39.990Z,1636
2017-07-19T04:12:00.664Z,1648
2017-07-19T04:12:21.312Z,1656
2017-07-19T04:12:41.981Z,1664
2017-07-19T04:13:02.651Z,1676
2017-07-19T04:13:23.304Z,1684
2017-07-19T04:13:43.971Z,1696
2017-07-19T04:14:04.606Z,1704
2017-07-19T04:14:25.251Z,1716
2017-07-19T04:14:45.911Z,1724
2017-07-19T04:15:06.589Z,1740
2017-07-19T04:15:27.256Z,1748
2017-07-19T04:15:47.896Z,1760
2017-07-19T04:16:08.560Z,1768
2017-07-19T04:16:29.240Z,1784
2017-07-19T04:16:49.900Z,1792
2017-07-19T04:17:10.556Z,1804
2017-07-19T04:17:31.230Z,1812
2017-07-19T04:17:51.883Z,1824
2017-07-19T04:18:12.603Z,1832
2017-07-19T04:18:33.261Z,1844
2017-07-19T04:18:53.913Z,1848
2017-07-19T04:19:14.574Z,1860
2017-07-19T04:19:35.241Z,1868
2017-07-19T04:19:55.882Z,1876
2017-07-19T04:20:16.563Z,1884
2017-07-19T04:20:37.211Z,1888
2017-07-19T04:20:57.862Z,1896
2017-07-19T04:21:18.526Z,1904
2017-07-19T04:21:39.176Z,1908
2017-07-19T04:21:59.824Z,1916
2017-07-19T04:22:20.477Z,1920
2017-07-19T04:22:41.138Z,1928
2017-07-19T04:23:01.780Z,1928
2017-07-19T04:23:22.432Z,1936
2017-07-19T04:23:43.085Z,1940
2017-07-19T04:24:03.718Z,1948
2017-07-19T04:24:24.368Z,1948
2017-07-19T04:24:45.067Z,1956
2017-07-19T04:25:05.731Z,1960
2017-07-19T04:25:26.394Z,1968
2017-07-19T04:25:47.039Z,1972
2017-07-19T04:26:07.689Z,1976
2017-07-19T04:26:28.361Z,1980
2017-07-19T04:26:49.000Z,1988
2017-07-19T04:27:09.648Z,1992
2017-07-19T04:27:30.329Z,2000
2017-07-19T04:27:51.018Z,2000
2017-07-19T04:28:11.672Z,2008
2017-07-19T04:28:32.334Z,2016
2017-07-19T04:28:53.004Z,2020
2017-07-19T04:29:13.657Z,2024
2017-07-19T04:29:34.319Z,2032
2017-07-19T04:29:54.973Z,2036
2017-07-19T04:30:15.629Z,2044
2017-07-19T04:30:36.283Z,2052
2017-07-19T04:30:56.935Z,2056
2017-07-19T04:31:17.609Z,2064
2017-07-19T04:31:38.265Z,2068
2017-07-19T04:31:58.920Z,2072
2017-07-19T04:32:19.643Z,2080
2017-07-19T04:32:40.301Z,2088
2017-07-19T04:33:00.970Z,2088
2017-07-19T04:33:21.622Z,2092
2017-07-19T04:33:42.283Z,2100
2017-07-19T04:34:02.947Z,2104
2017-07-19T04:34:23.603Z,2112
2017-07-19T04:34:44.289Z,2112
2017-07-19T04:35:04.990Z,2116
2017-07-19T04:35:25.678Z,2124
2017-07-19T04:35:46.382Z,2132
2017-07-19T04:36:07.030Z,2136
2017-07-19T04:36:27.697Z,2140
2017-07-19T04:36:48.358Z,2152
2017-07-19T04:37:09.025Z,2152
2017-07-19T04:37:29.671Z,2156
2017-07-19T04:37:50.332Z,2160
2017-07-19T04:38:11.001Z,2168
2017-07-19T04:38:31.669Z,2172
2017-07-19T04:38:52.316Z,2176
2017-07-19T04:39:12.964Z,2180
2017-07-19T04:39:33.638Z,2188
2017-07-19T04:39:54.287Z,2188
2017-07-19T04:40:14.958Z,2196
2017-07-19T04:40:35.631Z,2200
2017-07-19T04:40:56.295Z,2204
2017-07-19T04:41:16.934Z,2204
2017-07-19T04:41:37.585Z,2212
2017-07-19T04:41:58.302Z,2212
2017-07-19T04:42:18.971Z,2212
2017-07-19T04:42:39.662Z,2216
2017-07-19T04:43:00.348Z,2212
2017-07-19T04:43:21.017Z,2216
2017-07-19T04:43:41.670Z,2212
2017-07-19T04:44:02.322Z,2208
2017-07-19T04:44:22.978Z,2208
2017-07-19T04:44:43.633Z,2204
2017-07-19T04:45:04.287Z,2200
2017-07-19T04:45:24.956Z,2200
2017-07-19T04:45:45.607Z,2200
2017-07-19T04:46:06.273Z,2196
2017-07-19T04:46:27.094Z,2192
2017-07-19T04:46:47.746Z,2188
2017-07-19T04:47:08.449Z,2184
2017-07-19T04:47:29.108Z,2180
2017-07-19T04:47:49.774Z,2180
2017-07-19T04:48:10.447Z,2180
2017-07-19T04:48:31.136Z,2184
2017-07-19T04:48:51.782Z,2188
2017-07-19T04:49:12.464Z,2200
2017-07-19T04:49:33.139Z,2216
2017-07-19T04:49:53.797Z,2228
2017-07-19T04:50:14.448Z,2240
2017-07-19T04:50:35.104Z,2244
2017-07-19T04:50:55.803Z,2252
2017-07-19T04:51:16.497Z,2256
2017-07-19T04:51:37.180Z,2268
2017-07-19T04:51:57.846Z,2276
2017-07-19T04:52:18.507Z,2284
2017-07-19T04:52:39.174Z,2292
2017-07-19T04:52:59.844Z,2296
2017-07-19T04:53:20.513Z,2304
2017-07-19T04:53:41.180Z,2304
2017-07-19T04:54:01.862Z,2308
2017-07-19T04:54:22.513Z,2312